Wetterdaten: Woche 08.10.07 - 14.10.07 (KW41)
Datum Zeit Temperatur Luftfeuchte Luftdruck Niederschlag Wind Richtung Sonnenschein Solar Taupunkt Windchill Windben
08.10.2007 00:00 8.5 C 97 % 1021.2 hPa 0.0 l/m 0.6 km/h (0 Bft) O 0.00 h 0 W/m 8.0 C 8.5 C 1.4 km/h (1 Bft)
08.10.2007 01:00 8.0 C 98 % 1021.3 hPa 0.2 l/m 0.4 km/h (0 Bft) O 0.00 h 0 W/m 7.7 C 8.0 C 1.3 km/h (1 Bft)
08.10.2007 02:00 7.5 C 98 % 1021.4 hPa 0.0 l/m 0.1 km/h (0 Bft) O 0.00 h 0 W/m 7.2 C 7.5 C 0.4 km/h (0 Bft)
08.10.2007 03:00 7.1 C 99 % 1021.4 hPa 0.0 l/m 1.5 km/h (1 Bft) O 0.00 h 0 W/m 6.9 C 7.1 C 2.9 km/h (1 Bft)
08.10.2007 04:00 7.2 C 100 % 1021.3 hPa 0.0 l/m 0.7 km/h (0 Bft) O 0.00 h 0 W/m 7.1 C 7.2 C 1.7 km/h (1 Bft)
08.10.2007 05:00 7.3 C 100 % 1021.5 hPa 0.0 l/m 0.1 km/h (0 Bft) O 0.00 h 0 W/m 7.3 C 7.3 C 0.7 km/h (0 Bft)
08.10.2007 06:00 7.3 C 100 % 1022.0 hPa 0.0 l/m 0.3 km/h (0 Bft) O 0.00 h 0 W/m 7.3 C 7.3 C 1.1 km/h (1 Bft)
08.10.2007 07:00 7.3 C 100 % 1022.7 hPa 0.0 l/m 0.1 km/h (0 Bft) O 0.00 h 7 W/m 7.3 C 7.3 C 0.5 km/h (0 Bft)
08.10.2007 08:00 7.2 C 100 % 1023.2 hPa 0.0 l/m 0.4 km/h (0 Bft) O 0.00 h 36 W/m 7.2 C 7.2 C 1.6 km/h (1 Bft)
08.10.2007 09:00 7.8 C 100 % 1023.6 hPa 0.0 l/m 0.1 km/h (0 Bft) O 0.00 h 77 W/m 7.8 C 7.8 C 0.6 km/h (0 Bft)
08.10.2007 10:00 8.7 C 100 % 1023.6 hPa 0.0 l/m 0.4 km/h (0 Bft) O 0.00 h 124 W/m 8.7 C 8.7 C 1.4 km/h (1 Bft)
08.10.2007 11:00 9.7 C 100 % 1023.3 hPa 0.0 l/m 1.3 km/h (1 Bft) W 0.00 h 182 W/m 9.7 C 9.7 C 2.9 km/h (1 Bft)
08.10.2007 12:00 11.8 C 94 % 1023.0 hPa 0.0 l/m 0.9 km/h (0 Bft) S 0.48 h 358 W/m 10.8 C 11.8 C 2.9 km/h (1 Bft)
08.10.2007 13:00 15.0 C 80 % 1022.4 hPa 0.0 l/m 0.9 km/h (0 Bft) S-SO 1.00 h 542 W/m 11.6 C 15.0 C 2.9 km/h (1 Bft)
08.10.2007 14:00 17.2 C 69 % 1022.0 hPa 0.0 l/m 1.2 km/h (1 Bft) NO 1.00 h 507 W/m 11.5 C 17.2 C 3.1 km/h (1 Bft)
08.10.2007 15:00 18.0 C 65 % 1021.9 hPa 0.0 l/m 1.5 km/h (1 Bft) O-SO 1.00 h 411 W/m 11.3 C 18.0 C 3.1 km/h (1 Bft)
08.10.2007 16:00 18.6 C 62 % 1021.7 hPa 0.0 l/m 2.6 km/h (1 Bft) W-SW 1.00 h 287 W/m 11.2 C 18.6 C 4.6 km/h (1 Bft)
08.10.2007 17:00 18.0 C 65 % 1021.7 hPa 0.0 l/m 5.3 km/h (1 Bft) W 1.00 h 152 W/m 11.2 C 18.0 C 7.9 km/h (2 Bft)
08.10.2007 18:00 15.7 C 72 % 1022.2 hPa 0.0 l/m 1.6 km/h (1 Bft) SO 0.03 h 25 W/m 10.8 C 15.7 C 3.3 km/h (1 Bft)
08.10.2007 19:00 14.3 C 77 % 1023.0 hPa 0.0 l/m 2.6 km/h (1 Bft) O 0.00 h 0 W/m 10.4 C 14.3 C 4.1 km/h (1 Bft)
08.10.2007 20:00 12.9 C 84 % 1023.4 hPa 0.0 l/m 3.9 km/h (1 Bft) O-SO 0.00 h 0 W/m 10.1 C 12.9 C 5.3 km/h (1 Bft)
08.10.2007 21:00 11.4 C 89 % 1023.9 hPa 0.0 l/m 3.1 km/h (1 Bft) O-SO 0.00 h 0 W/m 9.6 C 11.4 C 4.6 km/h (1 Bft)
08.10.2007 22:00 10.3 C 92 % 1024.1 hPa 0.0 l/m 1.2 km/h (1 Bft) O-SO 0.00 h 0 W/m 9.0 C 10.3 C 2.2 km/h (1 Bft)
08.10.2007 23:00 9.6 C 93 % 1024.2 hPa 0.0 l/m 0.6 km/h (0 Bft) O 0.00 h 0 W/m 8.6 C 9.6 C 1.2 km/h (1 Bft)
09.10.2007 00:00 9.1 C 96 % 1024.3 hPa 0.0 l/m 1.1 km/h (1 Bft) O 0.00 h 0 W/m 8.5 C 9.1 C 2.4 km/h (1 Bft)
09.10.2007 01:00 8.8 C 96 % 1024.2 hPa 0.0 l/m 0.5 km/h (0 Bft) O 0.00 h 0 W/m 8.2 C 8.8 C 1.6 km/h (1 Bft)
09.10.2007 02:00 8.4 C 97 % 1024.3 hPa 0.0 l/m 0.4 km/h (0 Bft) O 0.00 h 0 W/m 8.0 C 8.4 C 1.4 km/h (1 Bft)
09.10.2007 03:00 7.8 C 98 % 1024.2 hPa 0.2 l/m 0.5 km/h (0 Bft) O 0.00 h 0 W/m 7.5 C 7.8 C 1.3 km/h (1 Bft)
09.10.2007 04:00 7.6 C 98 % 1024.1 hPa 0.0 l/m 0.0 km/h (0 Bft) N 0.00 h 0 W/m 7.4 C 7.6 C 0.5 km/h (0 Bft)
09.10.2007 05:00 7.4 C 98 % 1024.1 hPa 0.0 l/m 0.0 km/h (0 Bft) N 0.00 h 0 W/m 7.2 C 7.4 C 0.0 km/h (0 Bft)
09.10.2007 06:00 7.4 C 99 % 1024.4 hPa 0.0 l/m 0.1 km/h (0 Bft) O 0.00 h 0 W/m 7.3 C 7.4 C 0.2 km/h (0 Bft)
09.10.2007 07:00 7.6 C 100 % 1024.7 hPa 0.0 l/m 0.2 km/h (0 Bft) O 0.00 h 9 W/m 7.6 C 7.6 C 0.6 km/h (0 Bft)
09.10.2007 08:00 7.6 C 100 % 1025.2 hPa 0.0 l/m 0.4 km/h (0 Bft) O 0.00 h 44 W/m 7.6 C 7.6 C 1.4 km/h (1 Bft)
09.10.2007 09:00 8.2 C 100 % 1025.6 hPa 0.0 l/m 0.1 km/h (0 Bft) O 0.12 h 137 W/m 8.2 C 8.2 C 0.8 km/h (0 Bft)
09.10.2007 10:00 9.8 C 99 % 1025.5 hPa 0.0 l/m 0.3 km/h (0 Bft) O 0.50 h 251 W/m 9.6 C 9.8 C 1.5 km/h (1 Bft)
09.10.2007 11:00 12.2 C 83 % 1025.1 hPa 0.0 l/m 0.8 km/h (0 Bft) W-NW 0.90 h 335 W/m 9.4 C 12.2 C 2.5 km/h (1 Bft)
09.10.2007 12:00 13.6 C 77 % 1024.9 hPa 0.0 l/m 1.4 km/h (1 Bft) N-NW 0.88 h 366 W/m 9.6 C 13.6 C 3.2 km/h (1 Bft)
09.10.2007 13:00 15.3 C 70 % 1024.4 hPa 0.0 l/m 1.8 km/h (1 Bft) W-NW 1.00 h 485 W/m 9.8 C 15.3 C 3.5 km/h (1 Bft)
09.10.2007 14:00 16.6 C 68 % 1023.7 hPa 0.0 l/m 1.9 km/h (1 Bft) N-NW 1.00 h 472 W/m 10.6 C 16.6 C 4.2 km/h (1 Bft)
09.10.2007 15:00 17.4 C 68 % 1023.6 hPa 0.0 l/m 2.0 km/h (1 Bft) NW 1.00 h 355 W/m 11.4 C 17.4 C 4.0 km/h (1 Bft)
09.10.2007 16:00 17.5 C 67 % 1023.2 hPa 0.0 l/m 4.7 km/h (1 Bft) W-NW 0.85 h 250 W/m 11.2 C 17.5 C 7.1 km/h (2 Bft)
09.10.2007 17:00 16.7 C 69 % 1023.1 hPa 0.0 l/m 2.5 km/h (1 Bft) W 0.87 h 138 W/m 11.1 C 16.7 C 4.4 km/h (1 Bft)
09.10.2007 18:00 15.1 C 71 % 1023.1 hPa 0.0 l/m 0.1 km/h (0 Bft) W 0.02 h 27 W/m 10.0 C 15.1 C 0.7 km/h (0 Bft)
09.10.2007 19:00 13.0 C 79 % 1023.4 hPa 0.0 l/m 1.5 km/h (1 Bft) O-SO 0.00 h 0 W/m 9.4 C 13.0 C 2.7 km/h (1 Bft)
09.10.2007 20:00 11.3 C 88 % 1023.5 hPa 0.0 l/m 4.8 km/h (1 Bft) O-SO 0.00 h 0 W/m 9.4 C 11.3 C 6.3 km/h (2 Bft)
09.10.2007 21:00 10.6 C 90 % 1023.6 hPa 0.0 l/m 3.5 km/h (1 Bft) O-SO 0.00 h 0 W/m 9.0 C 10.6 C 5.0 km/h (1 Bft)
09.10.2007 22:00 10.1 C 91 % 1023.4 hPa 0.0 l/m 4.0 km/h (1 Bft) O 0.00 h 0 W/m 8.6 C 9.9 C 5.1 km/h (1 Bft)
09.10.2007 23:00 9.7 C 92 % 1023.0 hPa 0.0 l/m 1.2 km/h (1 Bft) O 0.00 h 0 W/m 8.5 C 9.7 C 2.6 km/h (1 Bft)
10.10.2007 00:00 9.8 C 92 % 1022.6 hPa 0.0 l/m 0.5 km/h (0 Bft) O-SO 0.00 h 0 W/m 8.6 C 9.8 C 1.5 km/h (1 Bft)
10.10.2007 01:00 9.2 C 94 % 1022.5 hPa 0.0 l/m 2.3 km/h (1 Bft) O-SO 0.00 h 0 W/m 8.3 C 9.2 C 3.5 km/h (1 Bft)
10.10.2007 02:00 8.7 C 94 % 1022.4 hPa 0.0 l/m 1.0 km/h (0 Bft) O 0.00 h 0 W/m 7.8 C 8.7 C 2.1 km/h (1 Bft)
10.10.2007 03:00 7.8 C 97 % 1022.0 hPa 0.0 l/m 0.6 km/h (0 Bft) O 0.00 h 0 W/m 7.4 C 7.8 C 1.4 km/h (1 Bft)
10.10.2007 04:00 7.7 C 98 % 1022.0 hPa 0.2 l/m 0.0 km/h (0 Bft) N 0.00 h 0 W/m 7.4 C 7.7 C 0.2 km/h (0 Bft)
10.10.2007 05:00 7.4 C 100 % 1022.0 hPa 0.0 l/m 0.0 km/h (0 Bft) N 0.00 h 0 W/m 7.4 C 7.4 C 0.3 km/h (0 Bft)
10.10.2007 06:00 7.5 C 100 % 1021.9 hPa 0.0 l/m 0.1 km/h (0 Bft) O 0.00 h 0 W/m 7.5 C 7.5 C 0.3 km/h (0 Bft)
10.10.2007 07:00 7.5 C 100 % 1022.0 hPa 0.0 l/m 0.2 km/h (0 Bft) O 0.00 h 9 W/m 7.5 C 7.5 C 0.8 km/h (0 Bft)
10.10.2007 08:00 7.6 C 100 % 1022.1 hPa 0.0 l/m 0.4 km/h (0 Bft) O 0.00 h 26 W/m 7.6 C 7.6 C 1.2 km/h (1 Bft)
10.10.2007 09:00 7.9 C 100 % 1022.0 hPa 0.0 l/m 1.0 km/h (0 Bft) N-NW 0.00 h 53 W/m 7.9 C 7.9 C 2.1 km/h (1 Bft)
10.10.2007 10:00 9.1 C 98 % 1021.9 hPa 0.0 l/m 0.8 km/h (0 Bft) N-NO 0.00 h 132 W/m 8.8 C 9.1 C 2.3 km/h (1 Bft)
10.10.2007 11:00 9.9 C 92 % 1021.9 hPa 0.0 l/m 2.3 km/h (1 Bft) O-SO 0.03 h 199 W/m 8.7 C 9.8 C 4.5 km/h (1 Bft)
10.10.2007 12:00 11.0 C 89 % 1021.7 hPa 0.0 l/m 6.8 km/h (2 Bft) O-SO 0.88 h 412 W/m 9.2 C 11.0 C 10.0 km/h (2 Bft)
10.10.2007 13:00 13.1 C 82 % 1021.1 hPa 0.0 l/m 7.0 km/h (2 Bft) O-SO 1.00 h 502 W/m 10.1 C 13.1 C 10.0 km/h (2 Bft)
10.10.2007 14:00 14.5 C 76 % 1020.6 hPa 0.0 l/m 6.3 km/h (2 Bft) O-SO 1.00 h 476 W/m 10.4 C 14.5 C 9.9 km/h (2 Bft)
10.10.2007 15:00 15.5 C 72 % 1020.5 hPa 0.0 l/m 7.9 km/h (2 Bft) O-SO 1.00 h 387 W/m 10.4 C 15.5 C 12.4 km/h (3 Bft)
10.10.2007 16:00 15.9 C 65 % 1020.2 hPa 0.0 l/m 5.7 km/h (1 Bft) O-SO 1.00 h 265 W/m 9.3 C 15.9 C 9.7 km/h (2 Bft)
10.10.2007 17:00 15.8 C 66 % 1020.2 hPa 0.0 l/m 3.9 km/h (1 Bft) O-SO 0.87 h 129 W/m 9.4 C 15.8 C 6.4 km/h (2 Bft)
10.10.2007 18:00 14.9 C 68 % 1020.6 hPa 0.0 l/m 1.3 km/h (1 Bft) NO 0.03 h 25 W/m 9.0 C 14.9 C 3.8 km/h (1 Bft)
10.10.2007 19:00 13.5 C 68 % 1021.5 hPa 0.0 l/m 1.8 km/h (1 Bft) NO 0.00 h 0 W/m 7.8 C 13.5 C 4.9 km/h (1 Bft)
10.10.2007 20:00 12.7 C 69 % 1022.5 hPa 0.0 l/m 2.5 km/h (1 Bft) NO 0.00 h 0 W/m 7.1 C 12.7 C 5.6 km/h (1 Bft)
10.10.2007 21:00 11.5 C 74 % 1023.3 hPa 0.0 l/m 1.6 km/h (1 Bft) NO 0.00 h 0 W/m 7.0 C 11.5 C 3.6 km/h (1 Bft)
10.10.2007 22:00 9.9 C 84 % 1023.8 hPa 0.0 l/m 0.0 km/h (0 Bft) N 0.00 h 0 W/m 7.2 C 9.9 C 0.3 km/h (0 Bft)
10.10.2007 23:00 9.0 C 87 % 1024.1 hPa 0.0 l/m 0.5 km/h (0 Bft) O-NO 0.00 h 0 W/m 7.0 C 9.0 C 1.4 km/h (1 Bft)
11.10.2007 00:00 8.3 C 88 % 1023.9 hPa 0.0 l/m 1.7 km/h (1 Bft) O-SO 0.00 h 0 W/m 6.5 C 8.3 C 3.2 km/h (1 Bft)
11.10.2007 01:00 7.5 C 93 % 1023.9 hPa 0.0 l/m 1.2 km/h (1 Bft) O-SO 0.00 h 0 W/m 6.4 C 7.4 C 1.7 km/h (1 Bft)
11.10.2007 02:00 7.2 C 92 % 1023.8 hPa 0.0 l/m 0.8 km/h (0 Bft) O 0.00 h 0 W/m 6.0 C 7.2 C 1.8 km/h (1 Bft)
11.10.2007 03:00 6.8 C 93 % 1023.9 hPa 0.0 l/m 0.8 km/h (0 Bft) O 0.00 h 0 W/m 5.8 C 6.8 C 1.9 km/h (1 Bft)
11.10.2007 04:00 7.5 C 93 % 1024.0 hPa 0.0 l/m 0.2 km/h (0 Bft) O 0.00 h 0 W/m 6.4 C 7.5 C 0.8 km/h (0 Bft)
11.10.2007 05:00 8.4 C 93 % 1024.3 hPa 0.0 l/m 0.0 km/h (0 Bft) N 0.00 h 0 W/m 7.3 C 8.4 C 0.0 km/h (0 Bft)
11.10.2007 06:00 9.0 C 91 % 1024.3 hPa 0.0 l/m 0.2 km/h (0 Bft) O 0.00 h 0 W/m 7.6 C 9.0 C 0.6 km/h (0 Bft)
11.10.2007 07:00 8.8 C 87 % 1024.5 hPa 0.0 l/m 0.3 km/h (0 Bft) O-NO 0.00 h 8 W/m 6.7 C 8.8 C 1.2 km/h (1 Bft)
11.10.2007 08:00 8.7 C 86 % 1025.1 hPa 0.0 l/m 1.0 km/h (0 Bft) O 0.00 h 34 W/m 6.5 C 8.7 C 2.6 km/h (1 Bft)
11.10.2007 09:00 9.4 C 84 % 1025.6 hPa 0.0 l/m 1.6 km/h (1 Bft) SO 0.00 h 90 W/m 6.8 C 9.3 C 3.6 km/h (1 Bft)
11.10.2007 10:00 10.5 C 80 % 1025.8 hPa 0.0 l/m 2.5 km/h (1 Bft) O-SO 0.00 h 155 W/m 7.1 C 10.5 C 5.5 km/h (1 Bft)
11.10.2007 11:00 11.0 C 78 % 1026.1 hPa 0.0 l/m 4.3 km/h (1 Bft) O-SO 0.00 h 188 W/m 7.4 C 11.0 C 7.7 km/h (2 Bft)
11.10.2007 12:00 12.3 C 74 % 1025.7 hPa 0.0 l/m 8.8 km/h (2 Bft) O-SO 0.82 h 431 W/m 7.8 C 12.3 C 13.4 km/h (3 Bft)
11.10.2007 13:00 13.6 C 70 % 1024.9 hPa 0.0 l/m 6.3 km/h (2 Bft) O-SO 1.00 h 504 W/m 8.2 C 13.6 C 11.0 km/h (2 Bft)
11.10.2007 14:00 14.8 C 66 % 1024.0 hPa 0.0 l/m 6.5 km/h (2 Bft) O-SO 1.00 h 469 W/m 8.6 C 14.8 C 10.2 km/h (2 Bft)
11.10.2007 15:00 15.8 C 60 % 1023.2 hPa 0.0 l/m 8.4 km/h (2 Bft) O-SO 1.00 h 391 W/m 8.0 C 15.8 C 13.4 km/h (3 Bft)
11.10.2007 16:00 16.1 C 56 % 1022.7 hPa 0.0 l/m 7.9 km/h (2 Bft) O-SO 1.00 h 273 W/m 7.4 C 16.1 C 12.2 km/h (2 Bft)
11.10.2007 17:00 15.5 C 58 % 1022.6 hPa 0.0 l/m 6.6 km/h (2 Bft) O-SO 0.85 h 129 W/m 7.3 C 15.5 C 9.9 km/h (2 Bft)
11.10.2007 18:00 14.1 C 63 % 1022.8 hPa 0.0 l/m 1.6 km/h (1 Bft) O 0.03 h 23 W/m 7.1 C 14.1 C 3.6 km/h (1 Bft)
11.10.2007 19:00 11.6 C 74 % 1023.8 hPa 0.0 l/m 0.4 km/h (0 Bft) O 0.00 h 0 W/m 7.2 C 11.6 C 1.3 km/h (1 Bft)
11.10.2007 20:00 10.1 C 82 % 1024.1 hPa 0.0 l/m 1.9 km/h (1 Bft) O-SO 0.00 h 0 W/m 7.0 C 10.1 C 3.0 km/h (1 Bft)
11.10.2007 21:00 8.5 C 88 % 1024.4 hPa 0.0 l/m 0.8 km/h (0 Bft) O-SO 0.00 h 0 W/m 6.6 C 8.5 C 1.7 km/h (1 Bft)
11.10.2007 22:00 7.6 C 91 % 1024.6 hPa 0.0 l/m 2.5 km/h (1 Bft) O-SO 0.00 h 0 W/m 6.2 C 7.4 C 3.7 km/h (1 Bft)
11.10.2007 23:00 7.1 C 92 % 1024.4 hPa 0.0 l/m 2.0 km/h (1 Bft) O-SO 0.00 h 0 W/m 5.9 C 7.1 C 3.2 km/h (1 Bft)
12.10.2007 00:00 6.6 C 94 % 1024.1 hPa 0.0 l/m 1.1 km/h (0 Bft) O-SO 0.00 h 0 W/m 5.7 C 6.6 C 2.1 km/h (1 Bft)
12.10.2007 01:00 6.3 C 96 % 1024.2 hPa 0.0 l/m 0.9 km/h (0 Bft) O-SO 0.00 h 0 W/m 5.6 C 6.3 C 2.0 km/h (1 Bft)
12.10.2007 02:00 5.8 C 96 % 1024.6 hPa 0.0 l/m 2.3 km/h (1 Bft) O-SO 0.00 h 0 W/m 5.2 C 5.6 C 3.2 km/h (1 Bft)
12.10.2007 03:00 5.5 C 97 % 1024.4 hPa 0.0 l/m 0.7 km/h (0 Bft) O 0.00 h 0 W/m 5.1 C 5.5 C 1.3 km/h (1 Bft)
12.10.2007 04:00 5.1 C 98 % 1024.1 hPa 0.0 l/m 1.0 km/h (0 Bft) O 0.00 h 0 W/m 4.8 C 5.1 C 1.6 km/h (1 Bft)
12.10.2007 05:00 5.7 C 98 % 1024.0 hPa 0.0 l/m 0.0 km/h (0 Bft) N 0.00 h 0 W/m 5.4 C 5.7 C 0.3 km/h (0 Bft)
12.10.2007 06:00 5.5 C 99 % 1023.8 hPa 0.0 l/m 0.4 km/h (0 Bft) NO 0.00 h 0 W/m 5.4 C 5.5 C 1.3 km/h (1 Bft)
12.10.2007 07:00 5.5 C 100 % 1023.9 hPa 0.2 l/m 0.6 km/h (0 Bft) NO 0.00 h 7 W/m 5.5 C 5.5 C 1.6 km/h (1 Bft)
12.10.2007 08:00 5.6 C 100 % 1024.3 hPa 0.0 l/m 0.2 km/h (0 Bft) O 0.00 h 28 W/m 5.6 C 5.6 C 0.9 km/h (0 Bft)
12.10.2007 09:00 6.3 C 100 % 1024.7 hPa 0.0 l/m 0.0 km/h (0 Bft) O 0.00 h 54 W/m 6.3 C 6.3 C 0.2 km/h (0 Bft)
12.10.2007 10:00 6.8 C 100 % 1025.1 hPa 0.0 l/m 0.0 km/h (0 Bft) O 0.03 h 157 W/m 6.8 C 6.8 C 0.6 km/h (0 Bft)
12.10.2007 11:00 8.5 C 94 % 1024.9 hPa 0.0 l/m 0.4 km/h (0 Bft) O-SO 0.37 h 263 W/m 7.6 C 8.5 C 1.4 km/h (1 Bft)
12.10.2007 12:00 11.7 C 80 % 1024.6 hPa 0.0 l/m 0.7 km/h (0 Bft) O-SO 0.92 h 445 W/m 8.4 C 11.7 C 2.1 km/h (1 Bft)
12.10.2007 13:00 13.9 C 74 % 1023.6 hPa 0.0 l/m 1.4 km/h (1 Bft) SO 0.92 h 418 W/m 9.3 C 13.9 C 3.5 km/h (1 Bft)
12.10.2007 14:00 15.2 C 68 % 1023.0 hPa 0.0 l/m 1.0 km/h (0 Bft) W-SW 1.00 h 436 W/m 9.4 C 15.2 C 2.8 km/h (1 Bft)
12.10.2007 15:00 15.9 C 66 % 1022.5 hPa 0.0 l/m 1.2 km/h (1 Bft) W 0.97 h 332 W/m 9.6 C 15.9 C 2.7 km/h (1 Bft)
12.10.2007 16:00 16.6 C 66 % 1022.2 hPa 0.0 l/m 1.9 km/h (1 Bft) N 0.78 h 246 W/m 10.2 C 16.6 C 3.9 km/h (1 Bft)
12.10.2007 17:00 15.2 C 69 % 1022.2 hPa 0.0 l/m 2.8 km/h (1 Bft) W 0.00 h 56 W/m 9.5 C 15.2 C 4.8 km/h (1 Bft)
12.10.2007 18:00 14.4 C 69 % 1022.6 hPa 0.0 l/m 0.5 km/h (0 Bft) W-NW 0.00 h 20 W/m 8.9 C 14.4 C 1.7 km/h (1 Bft)
12.10.2007 19:00 13.8 C 76 % 1023.1 hPa 0.0 l/m 0.2 km/h (0 Bft) W-NW 0.00 h 0 W/m 9.6 C 13.8 C 0.7 km/h (0 Bft)
12.10.2007 20:00 13.1 C 80 % 1023.5 hPa 0.0 l/m 0.3 km/h (0 Bft) NW 0.00 h 0 W/m 9.8 C 13.1 C 0.9 km/h (0 Bft)
12.10.2007 21:00 12.4 C 85 % 1023.6 hPa 0.0 l/m 0.4 km/h (0 Bft) NW 0.00 h 0 W/m 9.9 C 12.4 C 1.5 km/h (1 Bft)
12.10.2007 22:00 11.1 C 89 % 1024.0 hPa 0.0 l/m 0.9 km/h (0 Bft) O-SO 0.00 h 0 W/m 9.3 C 11.1 C 1.9 km/h (1 Bft)
12.10.2007 23:00 10.8 C 91 % 1024.0 hPa 0.0 l/m 0.4 km/h (0 Bft) O-SO 0.00 h 0 W/m 9.4 C 10.8 C 1.1 km/h (1 Bft)
13.10.2007 00:00 10.6 C 89 % 1023.8 hPa 0.0 l/m 2.7 km/h (1 Bft) SO 0.00 h 0 W/m 8.8 C 10.6 C 4.3 km/h (1 Bft)
13.10.2007 01:00 10.6 C 90 % 1023.7 hPa 0.0 l/m 0.4 km/h (0 Bft) S-SO 0.00 h 0 W/m 9.0 C 10.6 C 1.0 km/h (0 Bft)
13.10.2007 02:00 10.5 C 91 % 1023.6 hPa 0.0 l/m 0.2 km/h (0 Bft) S-SO 0.00 h 0 W/m 9.1 C 10.5 C 0.5 km/h (0 Bft)
13.10.2007 03:00 10.0 C 94 % 1023.4 hPa 0.0 l/m 0.5 km/h (0 Bft) S 0.00 h 0 W/m 9.1 C 10.0 C 1.7 km/h (1 Bft)
13.10.2007 04:00 9.1 C 96 % 1023.3 hPa 0.0 l/m 1.0 km/h (0 Bft) O-NO 0.00 h 0 W/m 8.6 C 9.1 C 2.0 km/h (1 Bft)
13.10.2007 05:00 8.3 C 97 % 1023.2 hPa 0.0 l/m 1.6 km/h (1 Bft) O-SO 0.00 h 0 W/m 7.9 C 8.3 C 2.5 km/h (1 Bft)
13.10.2007 06:00 8.5 C 99 % 1023.2 hPa 0.0 l/m 0.2 km/h (0 Bft) O 0.00 h 0 W/m 8.3 C 8.5 C 0.5 km/h (0 Bft)
13.10.2007 07:00 8.4 C 99 % 1023.3 hPa 0.0 l/m 0.1 km/h (0 Bft) O 0.05 h 10 W/m 8.2 C 8.4 C 0.6 km/h (0 Bft)
13.10.2007 08:00 8.9 C 98 % 1023.7 hPa 0.0 l/m 2.2 km/h (1 Bft) N-NO 0.00 h 39 W/m 8.5 C 8.8 C 4.3 km/h (1 Bft)
13.10.2007 09:00 10.5 C 86 % 1024.1 hPa 0.0 l/m 2.8 km/h (1 Bft) N-NO 0.20 h 122 W/m 8.3 C 10.5 C 5.9 km/h (2 Bft)
13.10.2007 10:00 12.3 C 79 % 1024.2 hPa 0.0 l/m 4.0 km/h (1 Bft) N-NO 0.30 h 207 W/m 8.7 C 12.3 C 7.9 km/h (2 Bft)
13.10.2007 11:00 13.6 C 72 % 1024.2 hPa 0.0 l/m 4.0 km/h (1 Bft) O 0.48 h 365 W/m 8.7 C 13.6 C 8.2 km/h (2 Bft)
13.10.2007 12:00 14.9 C 66 % 1023.9 hPa 0.0 l/m 7.2 km/h (2 Bft) O-SO 1.00 h 588 W/m 8.6 C 14.9 C 13.0 km/h (3 Bft)
13.10.2007 13:00 16.7 C 60 % 1023.3 hPa 0.0 l/m 6.0 km/h (2 Bft) O-SO 0.93 h 605 W/m 8.8 C 16.7 C 11.2 km/h (2 Bft)
13.10.2007 14:00 16.4 C 60 % 1023.1 hPa 0.0 l/m 5.5 km/h (1 Bft) N-NO 0.68 h 394 W/m 8.7 C 16.4 C 10.6 km/h (2 Bft)
13.10.2007 15:00 16.3 C 59 % 1023.0 hPa 0.0 l/m 4.1 km/h (1 Bft) O-SO 0.55 h 263 W/m 8.3 C 16.3 C 8.6 km/h (2 Bft)
13.10.2007 16:00 16.2 C 58 % 1023.1 hPa 0.0 l/m 4.6 km/h (1 Bft) O 0.95 h 233 W/m 8.0 C 16.2 C 9.2 km/h (2 Bft)
13.10.2007 17:00 15.3 C 60 % 1023.2 hPa 0.0 l/m 3.3 km/h (1 Bft) O 0.67 h 118 W/m 7.7 C 15.3 C 6.8 km/h (2 Bft)
13.10.2007 18:00 14.0 C 65 % 1023.3 hPa 0.0 l/m 1.4 km/h (1 Bft) NO 0.10 h 25 W/m 7.6 C 14.0 C 3.1 km/h (1 Bft)
13.10.2007 19:00 13.0 C 69 % 1023.6 hPa 0.0 l/m 0.9 km/h (0 Bft) NO 0.00 h 0 W/m 7.5 C 13.0 C 2.8 km/h (1 Bft)
13.10.2007 20:00 12.2 C 72 % 1023.6 hPa 0.0 l/m 2.5 km/h (1 Bft) N-NO 0.00 h 0 W/m 7.3 C 12.2 C 5.5 km/h (1 Bft)
13.10.2007 21:00 11.5 C 75 % 1023.7 hPa 0.0 l/m 2.5 km/h (1 Bft) N-NO 0.00 h 0 W/m 7.2 C 11.5 C 5.6 km/h (1 Bft)
13.10.2007 22:00 10.8 C 78 % 1023.8 hPa 0.0 l/m 2.2 km/h (1 Bft) N-NO 0.00 h 0 W/m 7.0 C 10.8 C 4.9 km/h (1 Bft)
13.10.2007 23:00 10.4 C 78 % 1023.7 hPa 0.0 l/m 3.5 km/h (1 Bft) NO 0.00 h 0 W/m 6.8 C 10.4 C 7.0 km/h (2 Bft)
14.10.2007 00:00 9.9 C 79 % 1023.6 hPa 0.0 l/m 1.3 km/h (1 Bft) NO 0.00 h 0 W/m 6.4 C 9.9 C 3.7 km/h (1 Bft)
14.10.2007 01:00 9.5 C 79 % 1023.6 hPa 0.0 l/m 2.3 km/h (1 Bft) O 0.00 h 0 W/m 6.1 C 9.4 C 4.7 km/h (1 Bft)
14.10.2007 02:00 8.1 C 84 % 1023.7 hPa 0.0 l/m 2.1 km/h (1 Bft) O-SO 0.00 h 0 W/m 5.5 C 8.0 C 3.9 km/h (1 Bft)
14.10.2007 03:00 6.6 C 90 % 1023.7 hPa 0.0 l/m 3.0 km/h (1 Bft) O-SO 0.00 h 0 W/m 5.1 C 6.4 C 4.2 km/h (1 Bft)
14.10.2007 04:00 5.9 C 93 % 1023.4 hPa 0.0 l/m 2.6 km/h (1 Bft) O-SO 0.00 h 0 W/m 4.8 C 5.8 C 3.9 km/h (1 Bft)
14.10.2007 05:00 5.0 C 94 % 1023.6 hPa 0.0 l/m 0.8 km/h (0 Bft) O-SO 0.00 h 0 W/m 4.1 C 5.0 C 1.5 km/h (1 Bft)
14.10.2007 06:00 4.6 C 96 % 1024.0 hPa 0.0 l/m 0.4 km/h (0 Bft) O-SO 0.00 h 0 W/m 4.1 C 4.6 C 1.0 km/h (0 Bft)
14.10.2007 07:00 5.2 C 97 % 1024.1 hPa 0.0 l/m 0.2 km/h (0 Bft) O-SO 0.00 h 5 W/m 4.8 C 5.2 C 0.6 km/h (0 Bft)
14.10.2007 08:00 6.3 C 97 % 1024.4 hPa 0.0 l/m 0.1 km/h (0 Bft) SO 0.00 h 15 W/m 5.8 C 6.3 C 0.6 km/h (0 Bft)
14.10.2007 09:00 7.2 C 94 % 1024.8 hPa 0.0 l/m 0.5 km/h (0 Bft) SO 0.00 h 44 W/m 6.3 C 7.2 C 1.3 km/h (1 Bft)
14.10.2007 10:00 8.6 C 89 % 1025.1 hPa 0.0 l/m 0.2 km/h (0 Bft) SW 0.00 h 75 W/m 6.8 C 8.6 C 0.9 km/h (0 Bft)
14.10.2007 11:00 9.3 C 84 % 1025.1 hPa 0.0 l/m 1.1 km/h (0 Bft) O 0.00 h 101 W/m 6.8 C 9.3 C 2.3 km/h (1 Bft)
14.10.2007 12:00 10.3 C 83 % 1024.9 hPa 0.0 l/m 1.0 km/h (0 Bft) N-NO 0.00 h 151 W/m 7.5 C 10.3 C 3.0 km/h (1 Bft)
14.10.2007 13:00 10.9 C 82 % 1024.5 hPa 0.0 l/m 0.8 km/h (0 Bft) O 0.00 h 158 W/m 7.9 C 10.9 C 2.3 km/h (1 Bft)
14.10.2007 14:00 11.5 C 80 % 1024.0 hPa 0.0 l/m 1.4 km/h (1 Bft) O-SO 0.00 h 169 W/m 8.2 C 11.5 C 3.3 km/h (1 Bft)
14.10.2007 15:00 11.8 C 79 % 1023.8 hPa 0.0 l/m 1.9 km/h (1 Bft) N-NO 0.00 h 165 W/m 8.3 C 11.8 C 4.5 km/h (1 Bft)
14.10.2007 16:00 11.8 C 79 % 1023.7 hPa 0.0 l/m 2.2 km/h (1 Bft) O 0.00 h 126 W/m 8.3 C 11.8 C 4.6 km/h (1 Bft)
14.10.2007 17:00 11.4 C 80 % 1023.4 hPa 0.0 l/m 1.2 km/h (1 Bft) O-SO 0.00 h 66 W/m 8.0 C 11.4 C 3.1 km/h (1 Bft)
14.10.2007 18:00 10.4 C 83 % 1023.3 hPa 0.0 l/m 0.2 km/h (0 Bft) O 0.00 h 16 W/m 7.6 C 10.4 C 1.6 km/h (1 Bft)
14.10.2007 19:00 9.2 C 87 % 1023.6 hPa 0.0 l/m 0.4 km/h (0 Bft) O 0.00 h 0 W/m 7.2 C 9.2 C 1.4 km/h (1 Bft)
14.10.2007 20:00 9.0 C 88 % 1023.7 hPa 0.0 l/m 0.7 km/h (0 Bft) O 0.00 h 0 W/m 7.1 C 9.0 C 2.3 km/h (1 Bft)
14.10.2007 21:00 9.3 C 86 % 1023.7 hPa 0.0 l/m 1.6 km/h (1 Bft) N-NO 0.00 h 0 W/m 7.1 C 9.2 C 3.6 km/h (1 Bft)
14.10.2007 22:00 9.1 C 88 % 1023.6 hPa 0.0 l/m 1.1 km/h (1 Bft) N-NO 0.00 h 0 W/m 7.3 C 9.1 C 2.8 km/h (1 Bft)
14.10.2007 23:00 8.9 C 89 % 1023.6 hPa 0.0 l/m 1.2 km/h (1 Bft) N-NO 0.00 h 0 W/m 7.2 C 8.9 C 3.1 km/h (1 Bft)
Min-Datum _ 14.10.07 11.10.07 10.10.07 - 08.10.07 - - - 14.10.07 14.10.07 08.10.07
_ Min-Zeit 06:00 16:35 16:15 - 00:00 - - - 05:59 05:32 00:00
Minimum _ 4.4 C 54 % 1020.1 hPa - 0.0 km/h (0 Bft) - - - 3.6 C 3.8 C 0.0 km/h (0 Bft)
Max-Datum _ 08.10.07 08.10.07 11.10.07 08.10.07 10.10.07 - 08.10.07 13.10.07 08.10.07 08.10.07 13.10.07
_ Max-Zeit 16:35 03:46 11:30 01:41 15:53 - 12:30 13:15 14:25 16:34 12:04
Maximum _ 19.1 C 100 % 1026.2 hPa 0.2 l/m 17.9 km/h
O-SO (3 Bft)
- 0.02 h 675 W/m 12.8 C 19.1 C 27.8 km/h
O-SO (4 Bft)
Durchschnitt _ 10.6 C 85 % 1023.4 hPa #0.8 l/m 1.8 km/h (1 Bft) O-SO #35:04 h 207 W/m 8.0 C 10.6 C 3.4 km/h (1 Bft)
© Kaiko 2007